Time;durP1;ratioP1;P1;durP2;ratioP2;P2;SDS_P1;SDS_P2;PMS_P1;PMS_P2;Temp;Humidity;BMP_temperature;BMP_pressure;BME280_temperature;BME280_humidity;BME280_pressure;Samples;Min_cycle;Max_cycle;Signal;HPM_P1;HPM_P2
2021/12/05 00:18:23;;;;;;;27.35;10.98;;;4.90;99.90;;;;;;4863588;29;20072;-76
2021/12/05 00:23:30;;;;;;;26.08;11.18;;;4.30;99.90;;;;;;4863254;29;20128;-78
2021/12/05 00:25:59;;;;;;;26.38;11.10;;;4.20;99.90;;;;;;4863491;29;20048;-77
2021/12/05 00:31:37;;;;;;;26.25;10.82;;;4.20;99.90;;;;;;4863224;29;20114;-76
2021/12/05 00:42:36;;;;;;;25.42;9.80;;;4.20;99.90;;;;;;4824052;29;20103;-74
2021/12/05 00:53:51;;;;;;;23.42;8.68;;;4.10;99.90;;;;;;4806249;29;20114;-77
2021/12/05 01:10:08;;;;;;;16.05;7.55;;;4.10;99.90;;;;;;4805850;29;20143;-75
2021/12/05 01:13:13;;;;;;;20.48;7.45;;;4.00;99.90;;;;;;4805326;29;20535;-75
2021/12/05 01:15:32;;;;;;;16.80;6.72;;;4.40;99.90;;;;;;4805704;29;20099;-74
2021/12/05 01:20:33;;;;;;;16.88;6.90;;;4.00;99.90;;;;;;4823795;29;20545;-76
2021/12/05 01:23:20;;;;;;;19.80;7.53;;;4.00;99.90;;;;;;4823795;29;20452;-75
2021/12/05 01:26:01;;;;;;;17.77;7.35;;;4.00;99.90;;;;;;4823558;29;20054;-76
2021/12/05 01:39:20;;;;;;;14.45;5.97;;;4.00;99.90;;;;;;4769441;30;20048;-76
2021/12/05 01:47:58;;;;;;;18.50;6.35;;;4.10;99.90;;;;;;4787195;30;20055;-75
2021/12/05 02:31:20;;;;;;;12.73;5.40;;;4.10;99.90;;;;;;4842566;29;20088;-75
2021/12/05 02:41:27;;;;;;;14.85;5.72;;;3.60;99.90;;;;;;4848375;29;20087;-76
2021/12/05 02:44:11;;;;;;;13.90;5.78;;;3.60;99.90;;;;;;4861299;29;20053;-77
2021/12/05 02:46:41;;;;;;;12.65;5.45;;;3.60;99.90;;;;;;4860770;29;20125;-77
2021/12/05 02:49:10;;;;;;;19.20;6.63;;;3.70;99.90;;;;;;4861068;29;20052;-77
2021/12/05 02:51:36;;;;;;;16.05;6.28;;;3.70;99.90;;;;;;4859615;29;20049;-75
2021/12/05 02:54:16;;;;;;;16.25;5.97;;;4.00;99.90;;;;;;4861322;29;20121;-76
2021/12/05 02:56:46;;;;;;;14.10;5.70;;;3.70;99.90;;;;;;4860966;29;20045;-75
2021/12/05 02:59:41;;;;;;;13.68;5.82;;;3.70;99.90;;;;;;4861048;29;20413;-75
2021/12/05 03:02:15;;;;;;;15.60;6.72;;;3.70;99.90;;;;;;4843988;29;20065;-75
2021/12/05 03:04:49;;;;;;;18.98;7.03;;;3.70;99.90;;;;;;4859479;29;20053;-75
2021/12/05 03:07:20;;;;;;;16.13;6.75;;;3.80;99.90;;;;;;4860928;29;20054;-75
2021/12/05 03:09:45;;;;;;;12.00;6.15;;;3.70;99.90;;;;;;4844258;29;20425;-75
2021/12/05 03:12:17;;;;;;;19.38;7.03;;;3.80;99.90;;;;;;4860746;29;20045;-75
2021/12/05 03:14:44;;;;;;;19.15;7.32;;;4.50;99.90;;;;;;4860684;29;20048;-76
2021/12/05 03:17:10;;;;;;;18.38;6.97;;;4.70;99.90;;;;;;4860455;29;20054;-76
2021/12/05 03:19:36;;;;;;;17.73;7.63;;;3.70;99.90;;;;;;4862850;29;20525;-75
2021/12/05 03:22:02;;;;;;;17.65;6.95;;;3.80;99.90;;;;;;4864735;29;20515;-75
2021/12/05 03:24:29;;;;;;;18.38;7.90;;;3.80;99.90;;;;;;4864584;29;20417;-75
2021/12/05 03:26:55;;;;;;;20.25;8.13;;;3.70;99.90;;;;;;4864425;29;20053;-74
2021/12/05 03:29:23;;;;;;;20.25;7.80;;;3.70;99.90;;;;;;4864444;29;20052;-76
2021/12/05 03:31:51;;;;;;;25.35;9.23;;;3.80;99.90;;;;;;4848085;29;20406;-73
2021/12/05 03:34:20;;;;;;;26.23;9.82;;;3.70;99.90;;;;;;4863837;29;20502;-75
2021/12/05 03:36:48;;;;;;;22.92;9.38;;;3.70;99.90;;;;;;4864419;29;20079;-75
2021/12/05 03:39:15;;;;;;;21.45;8.48;;;3.80;99.90;;;;;;4864407;29;20053;-73
2021/12/05 03:41:43;;;;;;;22.45;8.75;;;3.80;99.90;;;;;;4864078;29;20068;-75
2021/12/05 03:44:11;;;;;;;22.27;10.05;;;3.80;99.90;;;;;;4847581;29;20053;-74
2021/12/05 03:46:38;;;;;;;21.40;10.45;;;3.70;99.90;;;;;;4864337;29;20053;-73
2021/12/05 03:49:09;;;;;;;21.00;9.68;;;3.70;99.90;;;;;;4863680;29;20173;-75
2021/12/05 03:51:39;;;;;;;24.27;10.20;;;3.70;99.90;;;;;;4862253;29;20081;-76
2021/12/05 03:54:06;;;;;;;22.20;10.73;;;4.10;99.90;;;;;;4864107;29;20058;-75
2021/12/05 03:56:34;;;;;;;24.02;10.57;;;3.80;99.90;;;;;;4863882;29;20057;-75
2021/12/05 03:59:02;;;;;;;26.33;11.00;;;4.80;99.90;;;;;;4864104;29;20056;-76
2021/12/05 04:01:28;;;;;;;24.63;10.27;;;3.80;99.90;;;;;;4863862;29;20072;-75
2021/12/05 04:03:54;;;;;;;22.60;10.27;;;3.80;99.90;;;;;;4863950;29;20053;-75
2021/12/05 04:06:22;;;;;;;27.40;11.45;;;3.80;99.90;;;;;;4846577;29;20057;-75
2021/12/05 04:08:49;;;;;;;22.02;10.75;;;3.80;99.90;;;;;;4863968;29;20045;-76
2021/12/05 04:11:25;;;;;;;23.38;11.25;;;3.80;99.90;;;;;;4863717;29;20048;-76
2021/12/05 04:13:51;;;;;;;22.48;11.15;;;3.80;99.90;;;;;;4863700;29;20052;-74
2021/12/05 04:16:16;;;;;;;22.98;10.30;;;4.50;99.90;;;;;;4863678;29;20116;-75
2021/12/05 04:18:45;;;;;;;27.52;11.27;;;3.80;99.90;;;;;;4863697;29;20037;-75
2021/12/05 04:21:12;;;;;;;24.98;11.68;;;3.80;99.90;;;;;;4863227;29;20443;-76
2021/12/05 04:23:37;;;;;;;24.45;10.77;;;3.80;99.90;;;;;;4846910;29;20072;-75
2021/12/05 04:26:04;;;;;;;24.52;11.80;;;4.40;99.90;;;;;;4863320;29;20402;-76
2021/12/05 04:28:30;;;;;;;23.50;10.75;;;4.20;99.90;;;;;;4863564;29;20050;-73
2021/12/05 04:30:56;;;;;;;25.38;10.95;;;3.80;99.90;;;;;;4863326;29;20056;-73
2021/12/05 04:33:22;;;;;;;23.63;10.88;;;3.80;99.90;;;;;;4863442;29;20041;-73
2021/12/05 04:35:48;;;;;;;21.95;11.02;;;4.30;99.90;;;;;;4861942;29;20068;-75
2021/12/05 04:38:14;;;;;;;20.85;10.00;;;3.80;99.90;;;;;;4861666;29;20057;-73
2021/12/05 04:40:41;;;;;;;26.42;10.60;;;3.80;99.90;;;;;;4863137;29;20105;-73
2021/12/05 04:43:07;;;;;;;20.73;9.57;;;3.80;99.90;;;;;;4844870;29;20410;-74
2021/12/05 04:45:35;;;;;;;25.23;10.43;;;3.80;99.90;;;;;;4844973;29;20056;-73
2021/12/05 04:48:03;;;;;;;23.50;9.85;;;4.60;99.90;;;;;;4858906;29;20446;-73
2021/12/05 04:50:30;;;;;;;21.13;10.25;;;3.70;99.90;;;;;;4843382;29;20046;-74
2021/12/05 04:52:56;;;;;;;22.40;10.43;;;3.70;99.90;;;;;;4844329;29;20463;-73
2021/12/05 04:55:24;;;;;;;20.17;9.40;;;3.70;99.90;;;;;;4844291;29;20139;-74
2021/12/05 04:57:50;;;;;;;22.80;9.40;;;4.40;99.90;;;;;;4859007;29;20129;-75
2021/12/05 05:00:26;;;;;;;21.13;10.10;;;3.70;99.90;;;;;;4844437;29;20089;-73
2021/12/05 05:02:53;;;;;;;17.58;8.45;;;3.60;99.90;;;;;;4858860;29;20060;-73
2021/12/05 05:05:19;;;;;;;20.77;8.18;;;3.60;99.90;;;;;;4844506;29;20514;-73
2021/12/05 05:07:46;;;;;;;20.25;8.65;;;3.60;99.90;;;;;;4844062;29;20076;-74
2021/12/05 05:10:19;;;;;;;23.95;8.63;;;3.60;99.90;;;;;;4844002;29;20137;-74
2021/12/05 05:12:45;;;;;;;17.75;7.53;;;3.50;99.90;;;;;;4844503;29;20046;-73
2021/12/05 05:15:15;;;;;;;21.60;7.82;;;3.50;99.90;;;;;;4844537;29;20061;-73
2021/12/05 05:17:41;;;;;;;20.13;6.80;;;3.50;99.90;;;;;;4844181;29;20550;-74
2021/12/05 05:20:24;;;;;;;16.40;6.03;;;3.40;99.90;;;;;;4844136;29;20088;-75
2021/12/05 05:46:27;;;;;;;17.88;6.57;;;3.40;99.90;;;;;;4861073;29;20491;-74
2021/12/05 05:49:11;;;;;;;;;;;3.40;99.90;;;;;;4862640;29;20128;-74
2021/12/05 05:51:37;;;;;;;23.70;6.22;;;3.40;99.90;;;;;;4861043;29;20288;-74
2021/12/05 05:54:02;;;;;;;17.08;7.25;;;3.40;99.90;;;;;;4861082;29;20140;-74
2021/12/05 05:56:30;;;;;;;19.48;6.43;;;3.40;99.90;;;;;;4861447;29;20137;-75
2021/12/05 05:59:03;;;;;;;19.05;6.43;;;3.40;99.90;;;;;;4860946;29;20061;-74
2021/12/05 06:04:02;;;;;;;16.92;6.07;;;3.40;99.90;;;;;;4861969;29;20403;-75
2021/12/05 06:06:30;;;;;;;14.45;6.65;;;3.40;99.90;;;;;;4861673;29;20060;-74
2021/12/05 06:08:56;;;;;;;16.05;5.78;;;3.40;99.90;;;;;;4861603;29;20129;-74
2021/12/05 06:11:22;;;;;;;19.20;5.90;;;3.40;99.90;;;;;;4861231;29;20513;-74
2021/12/05 06:13:48;;;;;;;19.77;6.20;;;3.40;99.90;;;;;;4861775;29;20181;-74
2021/12/05 06:16:15;;;;;;;15.50;5.97;;;3.30;99.90;;;;;;4861743;29;20132;-74
2021/12/05 06:18:41;;;;;;;15.07;5.97;;;3.40;99.90;;;;;;4844965;29;20053;-76
2021/12/05 06:21:08;;;;;;;16.02;5.57;;;3.30;99.90;;;;;;4844937;29;20056;-74
2021/12/05 06:23:35;;;;;;;16.17;5.45;;;3.40;99.90;;;;;;4861324;29;20383;-74
2021/12/05 06:26:01;;;;;;;15.82;5.65;;;3.30;99.90;;;;;;4861586;29;20140;-74
2021/12/05 06:28:41;;;;;;;15.73;6.80;;;3.30;99.90;;;;;;4861098;29;20052;-73
2021/12/05 06:31:24;;;;;;;15.32;4.97;;;3.40;99.90;;;;;;4861514;29;20054;-74
2021/12/05 06:40:04;;;;;;;16.63;5.65;;;3.30;99.90;;;;;;4859125;29;20060;-72
2021/12/05 06:42:47;;;;;;;19.42;5.63;;;3.30;99.90;;;;;;4858715;29;20123;-74
2021/12/05 06:47:57;;;;;;;16.50;5.25;;;3.60;99.90;;;;;;4859049;29;20068;-73
2021/12/05 06:50:23;;;;;;;15.13;6.05;;;3.30;99.90;;;;;;4858997;29;20065;-75
2021/12/05 06:52:49;;;;;;;18.17;6.20;;;3.30;99.90;;;;;;4858584;29;20057;-75
2021/12/05 06:55:16;;;;;;;15.45;6.35;;;3.30;99.90;;;;;;4858245;29;20079;-75
2021/12/05 06:57:43;;;;;;;22.38;6.07;;;3.30;99.90;;;;;;4859086;29;20136;-76
2021/12/05 07:00:31;;;;;;;19.05;5.78;;;3.30;99.90;;;;;;4858467;29;20549;-74
2021/12/05 07:02:56;;;;;;;17.40;6.40;;;3.20;99.90;;;;;;4858772;29;20057;-75
2021/12/05 07:08:04;;;;;;;19.23;5.90;;;3.20;99.90;;;;;;4858857;29;20506;-74
2021/12/05 07:10:34;;;;;;;14.90;4.50;;;3.30;99.90;;;;;;4858949;29;20128;-75
2021/12/05 07:13:47;;;;;;;12.05;4.07;;;3.20;99.90;;;;;;4859159;29;20121;-75
2021/12/05 07:18:50;;;;;;;16.98;4.60;;;3.20;99.90;;;;;;4859411;29;20053;-75
2021/12/05 07:26:28;;;;;;;15.18;5.85;;;3.20;99.90;;;;;;4860881;29;20510;-75
2021/12/05 07:42:41;;;;;;;20.08;4.97;;;3.20;99.90;;;;;;4860390;29;20148;-76
2021/12/05 07:45:10;;;;;;;18.17;5.10;;;4.00;99.90;;;;;;4860586;29;20106;-76
2021/12/05 07:47:40;;;;;;;22.05;6.55;;;3.20;99.90;;;;;;4858884;29;20054;-75
2021/12/05 07:50:09;;;;;;;12.35;4.65;;;3.20;99.90;;;;;;4859340;29;20107;-75
2021/12/05 07:52:40;;;;;;;19.35;5.95;;;3.20;99.90;;;;;;4860513;29;20053;-75
2021/12/05 07:58:01;;;;;;;16.10;5.05;;;3.20;99.90;;;;;;4860593;29;20117;-75
2021/12/05 08:00:35;;;;;;;19.60;5.75;;;3.30;99.90;;;;;;4860287;29;20077;-77
2021/12/05 08:16:52;;;;;;;20.85;6.35;;;3.40;99.90;;;;;;4843697;29;20062;-76
2021/12/05 08:19:18;;;;;;;18.90;6.78;;;3.50;99.90;;;;;;4842639;29;20105;-75
2021/12/05 08:21:45;;;;;;;18.67;5.97;;;3.60;99.90;;;;;;4844979;29;20058;-75
2021/12/05 08:24:11;;;;;;;15.95;5.72;;;3.60;99.90;;;;;;4844589;29;20058;-75
2021/12/05 08:26:38;;;;;;;21.65;6.30;;;3.60;99.90;;;;;;4844102;29;20050;-74
2021/12/05 09:20:34;;;;;;;17.00;5.78;;;4.10;99.90;;;;;;4863128;29;20054;-71
2021/12/05 09:23:08;;;;;;;15.30;5.80;;;4.10;99.90;;;;;;4863378;29;20061;-72
2021/12/05 09:31:03;;;;;;;14.88;5.47;;;4.10;99.90;;;;;;4868663;29;20050;-72
2021/12/05 10:01:55;;;;;;;19.00;5.68;;;4.30;99.90;;;;;;4859960;29;20052;-75
2021/12/05 10:33:58;;;;;;;15.43;5.68;;;4.40;99.90;;;;;;4879966;29;19923;-77
2021/12/05 10:36:27;;;;;;;16.83;6.63;;;5.00;99.90;;;;;;4879672;29;20053;-73
2021/12/05 10:38:59;;;;;;;18.83;6.38;;;4.40;99.90;;;;;;4862604;29;20471;-81
2021/12/05 10:44:05;;;;;;;19.98;6.07;;;4.50;99.90;;;;;;4880256;29;20049;-72
2021/12/05 10:46:32;;;;;;;24.02;8.07;;;4.50;99.90;;;;;;4879669;29;20067;-69
2021/12/05 10:49:03;;;;;;;25.00;6.75;;;4.60;99.90;;;;;;4879800;29;20052;-69
2021/12/05 10:51:42;;;;;;;19.48;6.97;;;4.60;99.90;;;;;;4878670;29;20428;-69
2021/12/05 10:54:21;;;;;;;13.73;6.10;;;4.60;99.90;;;;;;4879456;29;20521;-73
2021/12/05 10:56:54;;;;;;;11.38;4.78;;;5.50;99.90;;;;;;4862098;29;20092;-78
2021/12/05 10:59:24;;;;;;;15.63;6.35;;;4.60;99.90;;;;;;4874888;29;20045;-70
2021/12/05 11:01:58;;;;;;;13.38;4.40;;;4.60;99.90;;;;;;4860892;29;20053;-76
2021/12/05 11:04:30;;;;;;;14.57;4.78;;;4.60;99.90;;;;;;4860872;29;20384;-74
2021/12/05 11:07:01;;;;;;;13.80;5.57;;;4.60;99.90;;;;;;4859445;29;20061;-71
2021/12/05 11:09:36;;;;;;;14.00;6.43;;;4.60;99.90;;;;;;4855253;29;20128;-74
2021/12/05 11:12:11;;;;;;;10.98;5.75;;;4.60;99.90;;;;;;4865823;29;20041;-75
2021/12/05 11:14:40;;;;;;;11.40;3.97;;;4.60;99.90;;;;;;4878134;29;20045;-77
2021/12/05 11:17:08;;;;;;;14.23;5.28;;;4.60;99.90;;;;;;4878591;29;20136;-76
2021/12/05 11:19:34;;;;;;;19.30;7.38;;;4.60;99.90;;;;;;4878729;29;20097;-79
2021/12/05 11:22:05;;;;;;;17.20;6.25;;;4.60;99.90;;;;;;4862142;29;20409;-78
2021/12/05 11:24:40;;;;;;;15.57;5.30;;;4.60;99.90;;;;;;4879436;29;20048;-78
2021/12/05 11:27:15;;;;;;;17.40;6.63;;;4.60;99.90;;;;;;4879664;29;20049;-77
2021/12/05 11:30:13;;;;;;;16.13;5.07;;;5.40;99.90;;;;;;4879603;29;20132;-78
2021/12/05 11:32:48;;;;;;;11.02;4.88;;;4.70;99.90;;;;;;4878850;29;20072;-75
2021/12/05 11:35:31;;;;;;;15.80;5.47;;;4.70;99.90;;;;;;4879654;29;20092;-76
2021/12/05 11:38:05;;;;;;;11.55;4.07;;;4.70;99.90;;;;;;4879256;29;20059;-81
2021/12/05 11:41:06;;;;;;;16.85;6.35;;;5.90;99.90;;;;;;4882124;29;20049;-76
2021/12/05 11:43:47;;;;;;;13.68;4.88;;;4.70;99.90;;;;;;4843085;29;20069;-72
2021/12/05 11:46:16;;;;;;;12.40;5.35;;;4.70;99.90;;;;;;4828368;29;20058;-74
2021/12/05 11:49:02;;;;;;;10.15;4.55;;;4.80;99.90;;;;;;4843603;29;20187;-76
2021/12/05 11:51:30;;;;;;;15.70;6.75;;;4.80;99.90;;;;;;4843561;29;20050;-73
2021/12/05 11:54:02;;;;;;;16.27;8.60;;;4.80;99.90;;;;;;4843558;29;20445;-71
2021/12/05 11:56:30;;;;;;;19.08;9.27;;;4.90;99.90;;;;;;4843475;29;20456;-77
2021/12/05 11:59:14;;;;;;;17.10;7.43;;;4.90;99.90;;;;;;4843211;29;20049;-72
2021/12/05 12:01:54;;;;;;;12.65;5.38;;;5.40;99.90;;;;;;4842840;29;20061;-83
2021/12/05 12:04:26;;;;;;;17.08;6.72;;;5.00;99.90;;;;;;4844154;29;20160;-74
2021/12/05 12:07:12;;;;;;;16.63;7.05;;;5.00;99.90;;;;;;4843684;29;20065;-76
2021/12/05 12:09:39;;;;;;;15.38;6.82;;;5.10;99.90;;;;;;4843311;29;20054;-75
2021/12/05 12:12:05;;;;;;;15.07;4.43;;;5.10;99.90;;;;;;4843250;29;20046;-81
2021/12/05 12:14:31;;;;;;;12.05;5.57;;;5.10;99.90;;;;;;4842589;29;20141;-81
2021/12/05 12:16:58;;;;;;;15.05;4.88;;;5.10;99.90;;;;;;4843112;29;20571;-80
2021/12/05 12:19:23;;;;;;;16.65;4.57;;;5.10;99.90;;;;;;4849857;29;20393;-71
2021/12/05 12:21:52;;;;;;;10.30;4.60;;;5.10;99.90;;;;;;4863951;29;20109;-81
2021/12/05 12:24:19;;;;;;;17.63;8.00;;;5.10;99.90;;;;;;4846929;29;20054;-82
2021/12/05 12:26:45;;;;;;;17.05;6.10;;;5.20;99.90;;;;;;4879617;29;20401;-72
2021/12/05 12:29:12;;;;;;;20.88;7.35;;;6.20;99.90;;;;;;4880911;29;20053;-72
2021/12/05 12:31:41;;;;;;;30.30;12.68;;;5.20;99.90;;;;;;4881475;29;20124;-75
2021/12/05 12:34:21;;;;;;;28.65;12.68;;;5.50;99.90;;;;;;4882361;29;20045;-74
2021/12/05 12:36:53;;;;;;;15.70;5.75;;;5.10;99.90;;;;;;4882159;29;20139;-76
2021/12/05 12:39:20;;;;;;;11.48;4.38;;;5.20;99.90;;;;;;4881880;29;20045;-86
2021/12/05 12:42:06;;;;;;;10.48;4.50;;;5.20;99.90;;;;;;4864622;29;20061;-84
2021/12/05 12:44:33;;;;;;;10.95;4.47;;;5.20;99.90;;;;;;4882337;29;20044;-86
2021/12/05 12:47:05;;;;;;;13.05;4.80;;;5.20;99.90;;;;;;4881402;29;20049;-76
2021/12/05 12:49:37;;;;;;;16.02;5.63;;;5.50;99.90;;;;;;4881831;29;20045;-74
2021/12/05 12:52:11;;;;;;;;;;;5.30;99.90;;;;;;4880791;29;20077;-78
2021/12/05 12:54:49;;;;;;;14.25;4.63;;;5.30;99.90;;;;;;4881920;29;20396;-78
2021/12/05 12:57:24;;;;;;;14.18;4.43;;;5.30;99.90;;;;;;4881878;29;20518;-75
2021/12/05 13:00:00;;;;;;;12.95;5.20;;;5.30;99.90;;;;;;4882313;29;20052;-89
2021/12/05 13:10:59;;;;;;;12.88;4.13;;;5.30;99.90;;;;;;4882479;29;20108;-76
2021/12/05 13:13:28;;;;;;;13.15;4.35;;;6.60;99.90;;;;;;4882437;29;20049;-83
2021/12/05 13:16:08;;;;;;;10.88;4.20;;;5.30;99.90;;;;;;4881851;29;20132;-86
2021/12/05 13:18:36;;;;;;;10.25;3.75;;;5.50;99.90;;;;;;4882003;29;20049;-80
2021/12/05 13:21:28;;;;;;;12.75;5.15;;;6.40;99.90;;;;;;4881288;29;20053;-75
2021/12/05 13:23:54;;;;;;;;;;;5.30;99.90;;;;;;4881490;29;20052;-80
2021/12/05 13:26:25;;;;;;;11.88;3.47;;;5.80;99.90;;;;;;4881437;29;19927;-74
2021/12/05 13:29:21;;;;;;;13.23;5.85;;;5.30;99.90;;;;;;4881760;29;20052;-73
2021/12/05 13:31:50;;;;;;;13.27;4.50;;;5.40;99.90;;;;;;4880612;29;20144;-89
2021/12/05 13:34:29;;;;;;;10.27;4.03;;;5.40;99.90;;;;;;4880534;29;20064;-76
2021/12/05 13:37:08;;;;;;;14.75;4.70;;;5.40;99.90;;;;;;4881248;29;20111;-73
2021/12/05 13:39:47;;;;;;;14.75;4.95;;;5.40;99.90;;;;;;4881310;29;20109;-82
2021/12/05 13:42:18;;;;;;;12.88;4.65;;;5.40;99.90;;;;;;4864390;29;20468;-72
2021/12/05 13:45:21;;;;;;;11.20;3.90;;;5.40;99.90;;;;;;4881100;29;20108;-73
2021/12/05 13:47:52;;;;;;;12.00;4.50;;;5.40;99.90;;;;;;4880930;29;20128;-76
2021/12/05 13:50:22;;;;;;;12.30;4.55;;;6.50;99.90;;;;;;4880776;29;20053;-78
2021/12/05 13:52:52;;;;;;;12.73;4.63;;;5.80;99.90;;;;;;4880572;29;20049;-87
2021/12/05 13:55:39;;;;;;;19.42;7.28;;;6.70;99.90;;;;;;4880725;29;20084;-89
2021/12/05 13:58:17;;;;;;;15.00;6.40;;;5.30;99.90;;;;;;4879435;29;20059;-76
2021/12/05 14:00:56;;;;;;;13.27;5.72;;;5.30;99.90;;;;;;4863059;29;20406;-86
2021/12/05 14:03:44;;;;;;;11.57;4.93;;;6.60;99.90;;;;;;4870712;29;20128;-74
2021/12/05 14:06:36;;;;;;;11.80;4.15;;;5.30;99.90;;;;;;4877975;29;20041;-77
2021/12/05 14:09:29;;;;;;;13.30;4.22;;;5.30;99.90;;;;;;4884597;29;20132;-76
2021/12/05 14:11:54;;;;;;;11.48;4.07;;;5.30;99.90;;;;;;4864377;29;20481;-76
2021/12/05 14:14:35;;;;;;;10.55;4.22;;;6.30;99.90;;;;;;4884143;29;20105;-76
2021/12/05 14:17:05;;;;;;;11.77;4.80;;;5.20;99.90;;;;;;4884953;29;20045;-76
2021/12/05 14:19:34;;;;;;;13.93;4.18;;;5.10;99.90;;;;;;4877090;29;20053;-76
2021/12/05 14:22:03;;;;;;;11.77;4.72;;;5.10;99.90;;;;;;4871386;29;20148;-76
2021/12/05 14:24:33;;;;;;;11.93;4.55;;;5.10;99.90;;;;;;4871594;29;20056;-74
2021/12/05 14:27:02;;;;;;;19.00;5.30;;;5.10;99.90;;;;;;4858326;29;20057;-74
2021/12/05 14:29:29;;;;;;;12.85;4.25;;;5.10;99.90;;;;;;4872284;29;20056;-85
2021/12/05 14:32:15;;;;;;;15.45;5.47;;;5.10;99.90;;;;;;4872669;29;20416;-74
2021/12/05 14:34:42;;;;;;;12.70;4.53;;;5.00;99.90;;;;;;4869466;29;20400;-71
2021/12/05 14:37:13;;;;;;;14.15;5.32;;;5.00;99.90;;;;;;4876959;29;20052;-76
2021/12/05 14:39:48;;;;;;;13.10;5.40;;;5.00;99.90;;;;;;4878652;29;20052;-81
2021/12/05 14:42:18;;;;;;;13.85;4.80;;;5.00;99.90;;;;;;4854049;29;20538;-83
2021/12/05 14:44:49;;;;;;;16.73;4.55;;;5.00;99.90;;;;;;4873553;29;20053;-81
2021/12/05 14:47:21;;;;;;;10.73;4.65;;;5.00;99.90;;;;;;4879656;29;20048;-79
2021/12/05 14:49:51;;;;;;;12.68;4.60;;;5.00;99.90;;;;;;4861253;29;20140;-77
2021/12/05 14:52:27;;;;;;;33.00;11.52;;;5.00;99.90;;;;;;4847362;29;20057;-87
2021/12/05 14:54:54;;;;;;;10.60;4.05;;;5.00;99.90;;;;;;4863501;29;20044;-88
2021/12/05 14:57:26;;;;;;;34.90;15.07;;;4.90;99.90;;;;;;4861400;29;20041;-80
2021/12/05 15:00:07;;;;;;;12.55;5.10;;;5.00;99.90;;;;;;4877353;29;20077;-76
2021/12/05 15:02:34;;;;;;;75.55;22.35;;;4.90;99.90;;;;;;4862251;29;20071;-82
2021/12/05 15:05:00;;;;;;;77.25;25.55;;;4.90;99.90;;;;;;4879650;29;20052;-81
2021/12/05 15:07:27;;;;;;;13.93;6.47;;;4.90;99.90;;;;;;4877591;29;20049;-78
2021/12/05 15:09:56;;;;;;;14.85;6.32;;;4.90;99.90;;;;;;4862063;29;20091;-81
2021/12/05 15:12:28;;;;;;;18.73;7.93;;;4.90;99.90;;;;;;4876685;29;20076;-83
2021/12/05 15:14:57;;;;;;;36.83;11.80;;;4.90;99.90;;;;;;4878373;29;20085;-80
2021/12/05 15:17:25;;;;;;;22.65;5.70;;;4.90;99.90;;;;;;4878344;29;20486;-80
2021/12/05 15:19:55;;;;;;;26.90;5.93;;;4.90;99.90;;;;;;4862525;29;20105;-77
2021/12/05 15:22:21;;;;;;;17.48;5.68;;;4.90;99.90;;;;;;4862815;29;20085;-76
2021/12/05 15:25:09;;;;;;;19.65;8.93;;;4.80;99.90;;;;;;4879240;29;20045;-84
2021/12/05 15:27:36;;;;;;;20.73;9.77;;;4.80;99.90;;;;;;4879024;29;20057;-79
2021/12/05 15:30:14;;;;;;;18.77;9.48;;;4.80;99.90;;;;;;4878922;29;20048;-75
2021/12/05 15:32:41;;;;;;;20.17;9.07;;;4.80;99.90;;;;;;4879399;29;20056;-81
2021/12/05 15:35:11;;;;;;;21.08;8.90;;;5.20;99.90;;;;;;4879329;29;20171;-76
2021/12/05 15:37:37;;;;;;;20.45;9.55;;;5.00;99.90;;;;;;4862700;29;20394;-77
2021/12/05 15:40:05;;;;;;;20.80;9.70;;;6.00;99.90;;;;;;4878825;29;20041;-76
2021/12/05 15:42:34;;;;;;;18.33;9.32;;;4.70;99.90;;;;;;4878586;29;20053;-76
2021/12/05 15:45:03;;;;;;;22.17;9.65;;;4.70;99.90;;;;;;4862213;29;20121;-76
2021/12/05 15:47:35;;;;;;;18.00;9.02;;;4.70;99.90;;;;;;4878863;29;20051;-79
2021/12/05 15:50:16;;;;;;;19.40;9.23;;;4.60;99.90;;;;;;4846974;29;20057;-78
2021/12/05 15:52:54;;;;;;;21.48;9.93;;;4.60;99.90;;;;;;4879052;29;20053;-77
2021/12/05 15:55:39;;;;;;;20.27;10.43;;;4.80;99.90;;;;;;4878856;29;20041;-78
2021/12/05 15:58:22;;;;;;;24.02;10.27;;;4.60;99.90;;;;;;4878730;29;20494;-80
2021/12/05 16:00:59;;;;;;;21.92;9.32;;;4.60;99.90;;;;;;4862451;29;20083;-83
2021/12/05 16:03:37;;;;;;;20.70;9.98;;;4.60;99.90;;;;;;4878707;29;20053;-73
2021/12/05 16:06:04;;;;;;;20.45;9.45;;;4.60;99.90;;;;;;4862000;29;20084;-77
2021/12/05 16:08:32;;;;;;;23.50;10.15;;;4.60;99.90;;;;;;4878948;29;20121;-77
2021/12/05 16:10:59;;;;;;;23.08;11.13;;;4.60;99.90;;;;;;4878477;29;20049;-78
2021/12/05 16:13:31;;;;;;;18.73;9.70;;;5.10;99.90;;;;;;4878776;29;20049;-76
2021/12/05 16:16:11;;;;;;;23.15;11.07;;;4.60;99.90;;;;;;4878645;29;20406;-77
2021/12/05 16:18:39;;;;;;;23.50;10.60;;;4.60;99.90;;;;;;4879040;29;20053;-77
2021/12/05 16:21:27;;;;;;;21.80;11.55;;;4.50;99.90;;;;;;4878950;29;20053;-81
2021/12/05 16:23:55;;;;;;;25.02;11.05;;;4.50;99.90;;;;;;4878806;29;20056;-76
2021/12/05 16:26:28;;;;;;;23.13;10.40;;;4.50;99.90;;;;;;4879049;29;20116;-77
2021/12/05 16:29:01;;;;;;;25.67;11.90;;;4.50;99.90;;;;;;4880545;29;20045;-76
2021/12/05 16:31:39;;;;;;;26.52;12.15;;;4.50;99.90;;;;;;4882090;29;20116;-77
2021/12/05 16:34:16;;;;;;;25.85;12.30;;;4.60;99.90;;;;;;4882078;29;20139;-77
2021/12/05 16:36:53;;;;;;;24.88;11.95;;;4.50;99.90;;;;;;4881791;29;20053;-75
2021/12/05 16:39:31;;;;;;;25.00;11.40;;;4.50;99.90;;;;;;4880644;29;20045;-82
2021/12/05 16:42:05;;;;;;;25.60;11.77;;;4.50;99.90;;;;;;4881703;29;20104;-78
2021/12/05 16:44:38;;;;;;;25.30;12.02;;;4.50;99.90;;;;;;4881292;29;20069;-77
2021/12/05 16:47:16;;;;;;;25.63;11.50;;;4.70;99.90;;;;;;4881576;29;20045;-78
2021/12/05 16:49:46;;;;;;;29.15;13.07;;;4.50;99.90;;;;;;4881533;29;20056;-77
2021/12/05 16:52:44;;;;;;;43.15;22.20;;;4.70;99.90;;;;;;4881873;29;20037;-79
2021/12/05 16:55:22;;;;;;;27.42;14.38;;;4.50;99.90;;;;;;4880376;29;20087;-75
2021/12/05 17:00:52;;;;;;;31.60;16.13;;;4.90;99.90;;;;;;4809299;29;20464;-78
2021/12/05 17:03:23;;;;;;;27.63;13.60;;;4.30;99.90;;;;;;4823913;29;20043;-79
2021/12/05 17:05:51;;;;;;;24.02;12.48;;;4.30;99.90;;;;;;4823965;29;20501;-76
2021/12/05 17:08:23;;;;;;;27.48;13.32;;;4.20;99.90;;;;;;4823807;29;20483;-76
2021/12/05 17:10:53;;;;;;;24.25;12.77;;;4.20;99.90;;;;;;4824003;29;20451;-77
2021/12/05 17:13:33;;;;;;;27.00;12.70;;;4.10;99.90;;;;;;4809036;29;20058;-77
2021/12/05 17:16:21;;;;;;;25.73;13.13;;;4.10;99.90;;;;;;4823613;29;20043;-77
2021/12/05 17:19:01;;;;;;;23.27;11.75;;;4.00;99.90;;;;;;4808804;29;20074;-79
2021/12/05 17:21:30;;;;;;;22.98;12.07;;;4.00;99.90;;;;;;4823836;29;20046;-76
2021/12/05 17:24:06;;;;;;;28.23;10.82;;;4.70;99.90;;;;;;4823866;29;20125;-77
2021/12/05 17:26:46;;;;;;;26.35;14.18;;;3.90;99.90;;;;;;4823695;29;20046;-77
2021/12/05 17:29:19;;;;;;;21.20;10.20;;;3.80;99.90;;;;;;4808514;29;20519;-77
2021/12/05 17:31:48;;;;;;;21.73;11.00;;;3.80;99.90;;;;;;4823094;29;20058;-77
2021/12/05 17:34:40;;;;;;;21.45;11.18;;;3.70;99.90;;;;;;4823665;29;20058;-77
2021/12/05 17:37:18;;;;;;;23.03;10.53;;;3.70;99.90;;;;;;4850777;29;20061;-76
2021/12/05 17:39:45;;;;;;;25.83;12.48;;;3.60;99.90;;;;;;4880899;29;20277;-78
2021/12/05 17:42:17;;;;;;;22.17;10.88;;;3.90;99.90;;;;;;4880537;29;20072;-78
2021/12/05 17:44:46;;;;;;;24.10;10.55;;;3.50;99.90;;;;;;4879840;29;20077;-77
2021/12/05 17:47:14;;;;;;;23.13;12.10;;;3.40;99.90;;;;;;4879243;29;20425;-77
2021/12/05 17:49:42;;;;;;;23.38;11.05;;;3.40;99.90;;;;;;4863825;29;20053;-77
2021/12/05 17:52:11;;;;;;;24.27;12.07;;;3.30;99.90;;;;;;4880640;29;20090;-77
2021/12/05 17:57:37;;;;;;;27.20;12.90;;;3.60;99.90;;;;;;4859851;29;20057;-78
2021/12/05 18:02:57;;;;;;;25.83;13.18;;;3.30;99.90;;;;;;4843132;29;20050;-77
2021/12/05 18:05:31;;;;;;;28.88;12.98;;;3.30;99.90;;;;;;4859615;29;20053;-75
2021/12/05 18:08:01;;;;;;;24.42;12.13;;;3.20;99.90;;;;;;4859688;29;20053;-77
2021/12/05 18:10:30;;;;;;;28.35;13.38;;;3.20;99.90;;;;;;4844182;29;20133;-77
2021/12/05 18:12:59;;;;;;;27.52;14.00;;;3.20;99.90;;;;;;4844368;29;20129;-77
2021/12/05 18:15:29;;;;;;;24.80;13.52;;;3.20;99.90;;;;;;4859568;29;20068;-76
2021/12/05 18:17:58;;;;;;;23.27;11.82;;;3.10;99.90;;;;;;4858755;29;20059;-77
2021/12/05 18:20:30;;;;;;;26.50;12.48;;;3.30;99.90;;;;;;4859307;29;20057;-77
2021/12/05 18:22:59;;;;;;;26.88;13.10;;;3.00;99.90;;;;;;4859352;29;20057;-76
2021/12/05 18:25:25;;;;;;;24.13;12.18;;;3.10;99.90;;;;;;4859294;29;20057;-78
2021/12/05 18:27:51;;;;;;;25.35;12.57;;;3.10;99.90;;;;;;4858946;29;20149;-77
2021/12/05 18:30:22;;;;;;;26.23;13.07;;;3.00;99.90;;;;;;4859316;29;20049;-76
2021/12/05 18:32:50;;;;;;;23.25;12.05;;;4.30;99.90;;;;;;4843678;29;20057;-77
2021/12/05 18:35:16;;;;;;;23.63;12.00;;;3.00;99.90;;;;;;4875048;29;20144;-74
2021/12/05 18:37:44;;;;;;;23.40;12.43;;;3.00;99.90;;;;;;4879814;29;20129;-77
2021/12/05 18:40:11;;;;;;;23.75;12.75;;;3.00;99.90;;;;;;4880108;29;20049;-77
2021/12/05 18:42:38;;;;;;;27.40;13.68;;;2.90;99.90;;;;;;4879679;29;20057;-76